Time;durP1;ratioP1;P1;durP2;ratioP2;P2;SDS_P1;SDS_P2;PMS_P1;PMS_P2;Temp;Humidity;BMP_temperature;BMP_pressure;BME280_temperature;BME280_humidity;BME280_pressure;Samples;Min_cycle;Max_cycle;Signal;HPM_P1;HPM_P2
2023/07/07 00:01:40;;;;;;;4.97;4.57;;;15.60;99.90;;;;;;5085838;28;20214;-70
2023/07/07 00:04:06;;;;;;;4.53;3.90;;;15.60;99.90;;;;;;5090060;28;20192;-71
2023/07/07 00:06:32;;;;;;;8.60;4.87;;;15.60;99.90;;;;;;5086394;28;20743;-69
2023/07/07 00:08:59;;;;;;;5.57;4.33;;;15.60;99.90;;;;;;5082569;28;20175;-69
2023/07/07 00:11:25;;;;;;;6.10;4.40;;;15.70;99.90;;;;;;5079716;28;20647;-69
2023/07/07 00:13:54;;;;;;;6.53;4.20;;;15.80;99.90;;;;;;5090442;28;20508;-68
2023/07/07 00:16:22;;;;;;;4.80;3.80;;;15.60;99.90;;;;;;5082976;28;20408;-71
2023/07/07 00:18:49;;;;;;;4.77;4.30;;;15.60;99.90;;;;;;5083278;28;20421;-69
2023/07/07 00:21:15;;;;;;;4.30;3.60;;;15.50;99.90;;;;;;5089903;28;20421;-69
2023/07/07 00:23:40;;;;;;;5.20;4.43;;;15.40;99.90;;;;;;5086040;28;20486;-69
2023/07/07 00:26:09;;;;;;;5.03;4.00;;;15.50;99.90;;;;;;5088132;28;20183;-69
2023/07/07 00:28:35;;;;;;;9.37;4.37;;;15.40;99.90;;;;;;5089687;28;20185;-69
2023/07/07 00:31:01;;;;;;;6.20;4.33;;;15.50;99.90;;;;;;5088056;28;20465;-69
2023/07/07 00:33:27;;;;;;;4.33;3.93;;;15.50;99.90;;;;;;5090238;28;20440;-69
2023/07/07 00:35:53;;;;;;;8.60;4.70;;;15.50;99.90;;;;;;5086959;28;20534;-70
2023/07/07 00:38:19;;;;;;;5.17;3.80;;;15.50;99.90;;;;;;5082622;28;20404;-70
2023/07/07 00:40:46;;;;;;;6.17;4.90;;;15.50;99.90;;;;;;5086206;28;20414;-70
2023/07/07 00:43:17;;;;;;;6.13;4.37;;;15.60;99.90;;;;;;5080602;28;21951;-70
2023/07/07 00:45:44;;;;;;;7.40;3.90;;;15.60;99.90;;;;;;5077476;28;20415;-69
2023/07/07 00:48:13;;;;;;;5.60;3.90;;;15.60;99.90;;;;;;5082654;28;20453;-70
2023/07/07 00:50:47;;;;;;;4.50;4.10;;;15.60;99.90;;;;;;5090058;28;20915;-70
2023/07/07 00:53:13;;;;;;;5.63;4.10;;;15.60;99.90;;;;;;5081632;28;20525;-70
2023/07/07 00:55:49;;;;;;;4.40;4.00;;;15.60;99.90;;;;;;5089439;28;20893;-70
2023/07/07 00:58:18;;;;;;;6.40;4.50;;;15.60;99.90;;;;;;5082520;28;20603;-69
2023/07/07 01:00:49;;;;;;;6.03;4.13;;;15.60;99.90;;;;;;5081915;28;20414;-71
2023/07/07 01:03:24;;;;;;;7.30;4.50;;;15.60;99.90;;;;;;5088478;28;20450;-69
2023/07/07 01:05:53;;;;;;;5.00;4.50;;;15.60;99.90;;;;;;5090508;28;20413;-70
2023/07/07 01:08:19;;;;;;;4.80;4.30;;;15.60;99.90;;;;;;5098235;28;20465;-70
2023/07/07 01:10:45;;;;;;;5.57;4.03;;;15.60;99.90;;;;;;5082901;28;20448;-70
2023/07/07 01:13:11;;;;;;;5.87;4.43;;;15.60;99.90;;;;;;5078187;28;20422;-70
2023/07/07 01:15:51;;;;;;;8.10;4.70;;;15.60;99.90;;;;;;5085421;28;20911;-70
2023/07/07 01:18:31;;;;;;;5.80;4.00;;;15.50;99.90;;;;;;5087411;28;20417;-71
2023/07/07 01:21:09;;;;;;;9.07;4.50;;;15.40;99.90;;;;;;5085853;28;20420;-67
2023/07/07 01:23:49;;;;;;;5.70;4.20;;;15.30;99.90;;;;;;5084849;28;20434;-70
2023/07/07 01:26:43;;;;;;;5.23;4.40;;;15.30;99.90;;;;;;5088806;28;20412;-70
2023/07/07 01:29:18;;;;;;;5.50;4.73;;;15.30;99.90;;;;;;5090163;28;20960;-71
2023/07/07 01:31:53;;;;;;;7.27;4.93;;;15.20;99.90;;;;;;5082321;28;20962;-68
2023/07/07 01:34:19;;;;;;;5.23;4.73;;;15.20;99.90;;;;;;5089189;28;20502;-69
2023/07/07 01:36:45;;;;;;;5.47;4.40;;;15.10;99.90;;;;;;5086900;28;20429;-68
2023/07/07 01:39:12;;;;;;;5.47;4.27;;;15.10;99.90;;;;;;5090951;28;20433;-69
2023/07/07 01:41:50;;;;;;;5.63;4.90;;;15.10;99.90;;;;;;5089369;28;20184;-69
2023/07/07 01:44:26;;;;;;;7.93;3.93;;;15.10;99.90;;;;;;5083119;28;20479;-69
2023/07/07 01:47:15;;;;;;;5.90;4.43;;;15.00;99.90;;;;;;5094164;28;20433;-70
2023/07/07 01:49:49;;;;;;;7.73;5.87;;;15.00;99.90;;;;;;5087668;28;20492;-69
2023/07/07 01:52:35;;;;;;;5.87;4.37;;;14.90;99.90;;;;;;5081982;28;20412;-69
2023/07/07 01:55:08;;;;;;;5.87;4.50;;;14.90;99.90;;;;;;5088541;28;20445;-70
2023/07/07 01:57:34;;;;;;;5.70;4.40;;;14.90;99.90;;;;;;5083228;28;20497;-70
2023/07/07 02:00:00;;;;;;;5.23;4.63;;;14.80;99.90;;;;;;5092091;28;20416;-70
2023/07/07 02:02:26;;;;;;;4.07;3.70;;;14.80;99.90;;;;;;5094521;28;20767;-70
2023/07/07 02:04:52;;;;;;;5.73;4.73;;;14.90;99.90;;;;;;5087542;28;20187;-69
2023/07/07 02:07:18;;;;;;;5.53;4.90;;;14.90;99.90;;;;;;5084890;28;20413;-70
2023/07/07 02:09:43;;;;;;;4.70;4.20;;;14.90;99.90;;;;;;5089385;28;20232;-69
2023/07/07 02:12:09;;;;;;;5.17;4.40;;;14.90;99.90;;;;;;5093243;28;20218;-70
2023/07/07 02:14:35;;;;;;;5.17;4.47;;;14.90;99.90;;;;;;5094486;28;20341;-71
2023/07/07 02:17:01;;;;;;;4.37;3.97;;;14.80;99.90;;;;;;5096244;28;20702;-70
2023/07/07 02:19:27;;;;;;;5.30;4.80;;;14.80;99.90;;;;;;5091943;28;20488;-69
2023/07/07 02:21:52;;;;;;;4.87;4.43;;;14.80;99.90;;;;;;5089207;28;20176;-70
2023/07/07 02:24:18;;;;;;;6.00;3.93;;;14.80;99.90;;;;;;5085150;28;20432;-69
2023/07/07 02:26:44;;;;;;;4.97;4.47;;;14.80;99.90;;;;;;5095889;28;20172;-69
2023/07/07 02:29:09;;;;;;;7.63;5.23;;;14.70;99.90;;;;;;5093927;28;20167;-69
2023/07/07 02:31:35;;;;;;;7.30;5.00;;;14.70;99.90;;;;;;5092719;28;20189;-70
2023/07/07 02:34:00;;;;;;;5.10;4.60;;;14.70;99.90;;;;;;5098410;28;20195;-69
2023/07/07 02:36:26;;;;;;;4.57;4.13;;;14.70;99.90;;;;;;5086729;28;20209;-69
2023/07/07 02:38:55;;;;;;;5.53;5.03;;;14.80;99.90;;;;;;5093313;28;20173;-70
2023/07/07 02:41:21;;;;;;;5.13;4.73;;;14.80;99.90;;;;;;5086639;28;20175;-70
2023/07/07 02:43:46;;;;;;;5.10;4.60;;;14.80;99.90;;;;;;5088529;28;20433;-70
2023/07/07 02:46:12;;;;;;;6.40;4.37;;;14.80;99.90;;;;;;5098654;28;20758;-68
2023/07/07 02:48:38;;;;;;;6.30;4.30;;;14.80;99.90;;;;;;5087284;28;20240;-70
2023/07/07 02:51:05;;;;;;;5.20;4.70;;;14.80;99.90;;;;;;5093785;28;20657;-70
2023/07/07 02:53:33;;;;;;;4.93;4.33;;;14.80;99.90;;;;;;5088665;28;20568;-69
2023/07/07 02:55:59;;;;;;;5.00;4.33;;;14.80;99.90;;;;;;5089137;28;20421;-70
2023/07/07 02:58:25;;;;;;;4.60;4.17;;;14.80;99.90;;;;;;5084541;28;20466;-69
2023/07/07 03:00:51;;;;;;;4.90;4.43;;;14.80;99.90;;;;;;5084850;28;20256;-70
2023/07/07 03:03:18;;;;;;;6.10;4.00;;;14.80;99.90;;;;;;5091924;28;20436;-71
2023/07/07 03:05:45;;;;;;;6.20;4.00;;;14.80;99.90;;;;;;5087307;28;20926;-70
2023/07/07 03:08:11;;;;;;;6.40;4.43;;;14.80;99.90;;;;;;5092608;28;20419;-69
2023/07/07 03:10:38;;;;;;;4.40;3.70;;;14.80;99.90;;;;;;5084290;28;20971;-70
2023/07/07 03:13:04;;;;;;;5.53;4.40;;;14.80;99.90;;;;;;5092420;28;20461;-70
2023/07/07 03:15:39;;;;;;;6.53;5.20;;;14.80;99.90;;;;;;5087463;28;20781;-70
2023/07/07 03:18:13;;;;;;;5.13;4.60;;;14.90;99.90;;;;;;5090515;28;20425;-70
2023/07/07 03:20:47;;;;;;;5.80;4.20;;;14.90;99.90;;;;;;5086281;28;20444;-70
2023/07/07 03:23:12;;;;;;;4.57;3.63;;;14.90;99.90;;;;;;5087709;28;20435;-69
2023/07/07 03:25:38;;;;;;;6.57;4.23;;;14.90;99.90;;;;;;5090735;28;20411;-69
2023/07/07 03:28:04;;;;;;;4.83;4.17;;;14.90;99.90;;;;;;5087704;28;20493;-69
2023/07/07 03:30:29;;;;;;;5.17;4.67;;;14.90;99.90;;;;;;5085434;28;20194;-69
2023/07/07 03:32:55;;;;;;;6.87;5.43;;;15.00;99.90;;;;;;5089117;28;20569;-69
2023/07/07 03:35:21;;;;;;;6.47;3.90;;;15.00;99.90;;;;;;5080635;28;20182;-69
2023/07/07 03:37:47;;;;;;;6.03;4.43;;;15.10;99.90;;;;;;5087792;28;20194;-71
2023/07/07 03:40:13;;;;;;;4.17;3.77;;;15.10;99.90;;;;;;5088761;28;20169;-69
2023/07/07 03:42:38;;;;;;;5.10;4.70;;;15.20;99.90;;;;;;5087789;28;20708;-69
2023/07/07 03:45:05;;;;;;;6.20;4.73;;;15.20;99.90;;;;;;5086951;28;20470;-70
2023/07/07 03:47:30;;;;;;;4.43;4.03;;;15.30;99.90;;;;;;5089824;28;20233;-69
2023/07/07 03:49:56;;;;;;;4.80;4.33;;;15.20;99.90;;;;;;5090312;28;20416;-69
2023/07/07 03:52:21;;;;;;;4.30;4.00;;;15.30;99.90;;;;;;5089497;28;20170;-71
2023/07/07 03:54:47;;;;;;;5.00;4.50;;;15.30;99.90;;;;;;5091287;28;20217;-68
2023/07/07 03:57:13;;;;;;;6.83;4.60;;;15.40;99.90;;;;;;5087791;28;20263;-69
2023/07/07 03:59:39;;;;;;;5.13;4.23;;;15.40;99.90;;;;;;5090365;28;20178;-69
2023/07/07 04:02:05;;;;;;;4.13;3.73;;;15.50;99.90;;;;;;5086466;28;20229;-69
2023/07/07 04:04:31;;;;;;;4.50;3.70;;;15.50;99.90;;;;;;5089958;28;20909;-68
2023/07/07 04:06:57;;;;;;;5.13;4.63;;;15.60;99.90;;;;;;5084429;28;20443;-69
2023/07/07 04:09:24;;;;;;;5.63;5.10;;;15.70;99.90;;;;;;5098514;28;20178;-70
2023/07/07 04:11:50;;;;;;;4.70;4.30;;;15.70;99.90;;;;;;5088701;28;20874;-70
2023/07/07 04:14:16;;;;;;;5.27;4.77;;;15.80;99.90;;;;;;5089093;28;20424;-68
2023/07/07 04:16:42;;;;;;;5.97;4.63;;;15.90;99.90;;;;;;5081399;28;20871;-69
2023/07/07 04:19:08;;;;;;;5.40;4.33;;;16.00;99.90;;;;;;5087389;28;20503;-69
2023/07/07 04:21:34;;;;;;;5.60;5.10;;;16.20;99.90;;;;;;5097530;28;20423;-68
2023/07/07 04:24:00;;;;;;;9.70;3.47;;;16.70;99.90;;;;;;5090609;28;20795;-69
2023/07/07 04:26:29;;;;;;;3.37;3.07;;;18.20;99.90;;;;;;5086570;28;20406;-69
2023/07/07 04:28:58;;;;;;;3.30;3.00;;;19.70;99.90;;;;;;5087668;28;20455;-69
2023/07/07 04:31:24;;;;;;;4.30;3.90;;;20.80;99.90;;;;;;5085639;28;20467;-68
2023/07/07 04:33:50;;;;;;;3.70;3.40;;;21.60;99.90;;;;;;5086965;28;20428;-69
2023/07/07 04:36:16;;;;;;;4.10;3.20;;;22.00;99.90;;;;;;5080038;28;20423;-69
2023/07/07 04:38:42;;;;;;;3.00;2.70;;;22.30;99.90;;;;;;5085081;28;20497;-69
2023/07/07 04:41:13;;;;;;;4.37;3.20;;;22.40;99.90;;;;;;5086180;28;20768;-70
2023/07/07 04:43:41;;;;;;;4.40;3.23;;;22.80;99.90;;;;;;5084592;28;20788;-69
2023/07/07 04:46:08;;;;;;;8.60;3.60;;;22.60;99.90;;;;;;5084945;28;20509;-69
2023/07/07 04:48:34;;;;;;;4.43;3.10;;;22.80;99.90;;;;;;5085510;28;20456;-69
2023/07/07 04:51:01;;;;;;;4.80;3.00;;;22.60;99.90;;;;;;5087631;28;20876;-69
2023/07/07 04:53:28;;;;;;;3.20;3.00;;;22.30;99.90;;;;;;5088690;28;20223;-71
2023/07/07 04:55:55;;;;;;;5.27;3.70;;;21.90;99.90;;;;;;5084721;28;20789;-67
2023/07/07 04:58:22;;;;;;;3.97;3.57;;;20.90;99.90;;;;;;5086941;28;20412;-69
2023/07/07 05:00:48;;;;;;;6.53;3.30;;;20.40;99.90;;;;;;5083936;28;20949;-70
2023/07/07 05:03:14;;;;;;;5.57;3.77;;;20.50;99.90;;;;;;5087968;28;20674;-70
2023/07/07 05:05:39;;;;;;;3.97;3.60;;;20.70;99.90;;;;;;5065141;28;20946;-69
2023/07/07 05:08:07;;;;;;;4.13;3.30;;;20.70;99.90;;;;;;5081405;28;20584;-70
2023/07/07 05:10:32;;;;;;;4.00;3.60;;;20.70;99.90;;;;;;5081381;28;20203;-70
2023/07/07 05:12:58;;;;;;;3.50;3.20;;;21.50;99.90;;;;;;5094166;28;20415;-71
2023/07/07 05:15:24;;;;;;;4.70;3.40;;;21.70;99.90;;;;;;5093637;28;20177;-69
2023/07/07 05:17:51;;;;;;;3.23;2.93;;;22.30;99.90;;;;;;5094858;28;20171;-69
2023/07/07 05:20:17;;;;;;;3.40;2.67;;;22.60;99.90;;;;;;5083312;28;20414;-68
2023/07/07 05:22:42;;;;;;;3.17;2.70;;;22.50;99.90;;;;;;5088098;28;20459;-69
2023/07/07 05:25:08;;;;;;;7.73;3.10;;;22.60;99.40;;;;;;5086130;28;20741;-69
2023/07/07 05:27:34;;;;;;;4.40;2.67;;;22.70;99.20;;;;;;5088655;28;20180;-69
2023/07/07 05:29:59;;;;;;;3.73;2.40;;;22.80;99.60;;;;;;5092684;28;20178;-68
2023/07/07 05:32:25;;;;;;;7.83;3.10;;;23.20;98.00;;;;;;5090117;28;20177;-67
2023/07/07 05:34:50;;;;;;;6.20;2.43;;;23.30;98.00;;;;;;5079605;28;20186;-69
2023/07/07 05:37:16;;;;;;;4.77;2.80;;;23.30;97.70;;;;;;5090355;28;20185;-69
2023/07/07 05:39:42;;;;;;;3.63;2.87;;;23.80;96.80;;;;;;5079729;28;20182;-69
2023/07/07 05:42:07;;;;;;;4.00;2.80;;;24.00;97.10;;;;;;5091153;28;20186;-69
2023/07/07 05:44:33;;;;;;;3.43;3.00;;;23.70;97.40;;;;;;5088831;28;20190;-69
2023/07/07 05:46:58;;;;;;;3.27;2.50;;;23.70;97.00;;;;;;5092164;28;20201;-69
2023/07/07 05:49:24;;;;;;;3.07;2.77;;;23.70;96.30;;;;;;5084040;28;20180;-70
2023/07/07 05:51:49;;;;;;;2.33;2.00;;;24.00;96.20;;;;;;5084949;28;20200;-70
2023/07/07 05:54:15;;;;;;;4.10;2.80;;;24.00;95.80;;;;;;5085225;28;20572;-70
2023/07/07 05:56:41;;;;;;;3.10;2.57;;;24.10;95.80;;;;;;5093932;28;20170;-69
2023/07/07 05:59:07;;;;;;;3.27;2.40;;;24.00;95.80;;;;;;5100585;28;20643;-69
2023/07/07 06:01:33;;;;;;;4.50;2.50;;;24.70;94.80;;;;;;5079881;28;20178;-70
2023/07/07 06:03:59;;;;;;;3.43;1.90;;;24.60;95.20;;;;;;5091386;28;20198;-68
2023/07/07 06:06:25;;;;;;;3.90;2.60;;;24.60;94.40;;;;;;5089723;28;20408;-69
2023/07/07 06:08:50;;;;;;;4.37;2.33;;;24.20;94.70;;;;;;5065485;28;20199;-69
2023/07/07 06:11:16;;;;;;;4.53;2.73;;;24.20;94.10;;;;;;5082488;28;20202;-69
2023/07/07 06:13:41;;;;;;;2.73;2.53;;;24.60;94.20;;;;;;5083709;28;20201;-71
2023/07/07 06:16:07;;;;;;;3.30;2.90;;;25.30;93.30;;;;;;5086869;28;20173;-71
2023/07/07 06:18:33;;;;;;;3.10;2.70;;;25.20;93.60;;;;;;5087532;28;20189;-69
2023/07/07 06:21:00;;;;;;;4.47;4.13;;;24.80;93.20;;;;;;5091086;28;20169;-70
2023/07/07 06:23:29;;;;;;;3.63;3.27;;;24.60;93.90;;;;;;5084147;28;20427;-69
2023/07/07 06:25:55;;;;;;;2.80;2.40;;;25.00;93.80;;;;;;5092207;28;20909;-68
2023/07/07 06:28:21;;;;;;;3.73;2.60;;;25.30;92.70;;;;;;5088903;28;20410;-69
2023/07/07 06:30:48;;;;;;;3.33;3.03;;;25.60;92.50;;;;;;5078672;28;20196;-68
2023/07/07 06:33:14;;;;;;;3.90;2.73;;;25.90;92.60;;;;;;5084804;28;21020;-69
2023/07/07 06:35:41;;;;;;;3.03;2.47;;;25.70;92.00;;;;;;5082552;28;20771;-69
2023/07/07 06:38:07;;;;;;;3.60;2.30;;;25.70;91.80;;;;;;5082709;28;20420;-67
2023/07/07 06:40:34;;;;;;;5.90;2.93;;;26.20;91.60;;;;;;5091157;28;20415;-69
2023/07/07 06:43:00;;;;;;;6.43;2.90;;;26.50;90.10;;;;;;5096052;28;20177;-69
2023/07/07 06:45:26;;;;;;;2.40;2.20;;;27.00;88.30;;;;;;5089736;28;20405;-69
2023/07/07 06:47:52;;;;;;;5.03;2.63;;;26.80;87.90;;;;;;5089258;28;20487;-64
2023/07/07 06:50:28;;;;;;;4.40;2.77;;;26.40;91.50;;;;;;5088908;28;20225;-70
2023/07/07 06:52:54;;;;;;;6.40;2.43;;;26.60;89.70;;;;;;5080834;28;20778;-68
2023/07/07 06:55:20;;;;;;;5.20;2.67;;;26.50;92.60;;;;;;5099400;28;20417;-69
2023/07/07 06:57:46;;;;;;;4.10;2.70;;;26.70;90.00;;;;;;5089189;28;20165;-68
2023/07/07 07:00:13;;;;;;;2.60;2.33;;;26.30;90.50;;;;;;5079531;28;20501;-69
2023/07/07 07:02:39;;;;;;;4.50;2.50;;;26.80;90.60;;;;;;5088697;28;20408;-69
2023/07/07 07:05:05;;;;;;;2.83;2.27;;;27.50;89.30;;;;;;5087430;28;20514;-69
2023/07/07 07:07:31;;;;;;;4.90;2.83;;;28.00;88.20;;;;;;5086539;28;20415;-69
2023/07/07 07:09:57;;;;;;;3.90;2.63;;;28.60;82.80;;;;;;5091637;28;20410;-68
2023/07/07 07:12:23;;;;;;;3.87;3.20;;;28.00;87.70;;;;;;5083867;28;20409;-68
2023/07/07 07:14:48;;;;;;;4.87;2.40;;;27.40;88.70;;;;;;5089634;28;20200;-68
2023/07/07 07:17:14;;;;;;;3.47;2.30;;;27.50;85.20;;;;;;5086421;28;20200;-70
2023/07/07 07:19:40;;;;;;;5.80;2.30;;;27.40;86.90;;;;;;5086426;28;20197;-70
2023/07/07 07:22:05;;;;;;;3.50;2.07;;;27.70;88.50;;;;;;5083831;28;20926;-70
2023/07/07 07:24:31;;;;;;;3.20;1.97;;;28.80;82.50;;;;;;5083640;28;20323;-69
2023/07/07 07:26:57;;;;;;;3.10;2.27;;;28.10;83.50;;;;;;5083594;28;20654;-69
2023/07/07 07:29:22;;;;;;;2.17;1.97;;;28.50;85.50;;;;;;5090079;28;20182;-69
2023/07/07 07:31:48;;;;;;;1.90;1.80;;;27.90;82.70;;;;;;5091781;28;20207;-69
2023/07/07 07:34:23;;;;;;;3.33;1.87;;;27.60;82.50;;;;;;5094135;28;20193;-69
2023/07/07 07:36:50;;;;;;;3.43;1.90;;;27.50;85.00;;;;;;5087150;28;20414;-69
2023/07/07 07:39:16;;;;;;;3.33;1.70;;;28.10;82.20;;;;;;5081933;28;20408;-70
2023/07/07 07:41:44;;;;;;;2.20;1.97;;;28.80;82.40;;;;;;5086443;28;20411;-70
2023/07/07 07:44:10;;;;;;;2.00;1.90;;;28.90;79.70;;;;;;5078783;28;20202;-69
2023/07/07 07:46:36;;;;;;;1.97;1.87;;;29.40;76.70;;;;;;5097957;28;20407;-68
2023/07/07 07:49:02;;;;;;;4.87;2.47;;;28.90;79.50;;;;;;5088842;28;20184;-69
2023/07/07 07:51:28;;;;;;;1.50;1.40;;;28.50;75.90;;;;;;5093001;28;20201;-69
2023/07/07 07:53:53;;;;;;;3.10;1.80;;;29.00;81.20;;;;;;5097848;28;20808;-69
2023/07/07 07:56:19;;;;;;;2.20;1.67;;;29.20;76.80;;;;;;5087944;28;20262;-70
2023/07/07 07:58:44;;;;;;;2.17;1.97;;;29.00;81.20;;;;;;5064840;28;20161;-69
2023/07/07 08:01:10;;;;;;;3.23;1.73;;;30.10;74.60;;;;;;5083065;28;20561;-69
2023/07/07 08:03:35;;;;;;;2.30;1.70;;;28.90;76.10;;;;;;5089071;28;20282;-68
2023/07/07 08:06:01;;;;;;;2.43;2.10;;;28.60;80.70;;;;;;5083380;28;20533;-69
2023/07/07 08:08:26;;;;;;;1.70;1.60;;;29.60;73.60;;;;;;5090578;28;20174;-68
2023/07/07 08:10:52;;;;;;;2.10;1.90;;;30.40;74.30;;;;;;5097667;28;20284;-69
2023/07/07 08:13:18;;;;;;;4.83;2.37;;;30.20;73.50;;;;;;5094493;28;20192;-69
2023/07/07 08:15:43;;;;;;;2.30;2.03;;;30.50;71.90;;;;;;5089412;28;20248;-69
2023/07/07 08:18:09;;;;;;;2.23;2.03;;;30.30;74.40;;;;;;5089602;28;20632;-69
2023/07/07 08:20:34;;;;;;;2.03;1.80;;;29.90;69.80;;;;;;5091157;28;20286;-69
2023/07/07 08:23:00;;;;;;;2.23;1.70;;;29.40;78.70;;;;;;5094620;28;20721;-68
2023/07/07 08:25:27;;;;;;;1.80;1.70;;;29.10;75.30;;;;;;5086378;28;20521;-69
2023/07/07 08:27:53;;;;;;;2.20;2.00;;;29.10;75.80;;;;;;5084478;28;20173;-69
2023/07/07 08:30:20;;;;;;;5.93;4.00;;;28.90;73.60;;;;;;5089086;28;20447;-69
2023/07/07 08:32:45;;;;;;;1.57;1.30;;;29.60;76.60;;;;;;5088237;28;20408;-70
2023/07/07 08:35:11;;;;;;;5.00;4.57;;;29.60;71.80;;;;;;5088505;28;20511;-71
2023/07/07 08:37:37;;;;;;;4.67;4.00;;;29.90;76.80;;;;;;5085149;28;20173;-69
2023/07/07 08:40:03;;;;;;;2.23;1.80;;;31.30;69.70;;;;;;5086980;28;20828;-70
2023/07/07 08:42:37;;;;;;;1.30;1.20;;;31.60;68.20;;;;;;5087921;28;20250;-70
2023/07/07 08:45:12;;;;;;;4.83;1.50;;;29.70;67.90;;;;;;5087286;28;20477;-70
2023/07/07 08:48:11;;;;;;;2.10;1.20;;;30.10;67.60;;;;;;5088514;28;20411;-70
2023/07/07 08:50:50;;;;;;;2.13;1.10;;;30.10;66.30;;;;;;5083335;28;20436;-70
2023/07/07 08:53:37;;;;;;;2.57;1.60;;;31.70;60.50;;;;;;5085831;28;20457;-70
2023/07/07 08:56:17;;;;;;;2.27;2.13;;;32.40;59.60;;;;;;5096177;28;20415;-70
2023/07/07 08:59:18;;;;;;;3.53;1.73;;;32.10;60.20;;;;;;5096015;28;20395;-71
2023/07/07 09:02:15;;;;;;;2.07;1.47;;;31.40;61.30;;;;;;5043461;28;20396;-70
2023/07/07 09:04:47;;;;;;;2.00;1.60;;;30.50;62.30;;;;;;5091299;28;20423;-70
2023/07/07 09:07:46;;;;;;;2.53;1.93;;;29.80;67.00;;;;;;5084334;28;20398;-71
2023/07/07 09:11:04;;;;;;;2.50;1.83;;;31.70;62.70;;;;;;5092502;28;20401;-71
2023/07/07 09:13:34;;;;;;;1.20;1.10;;;31.60;61.10;;;;;;5062449;28;20435;-69
2023/07/07 09:16:19;;;;;;;1.97;1.40;;;30.10;67.70;;;;;;5085850;28;20403;-70
2023/07/07 09:18:54;;;;;;;1.50;1.40;;;30.10;68.10;;;;;;5082047;28;20743;-70
2023/07/07 09:21:46;;;;;;;6.63;1.47;;;30.50;65.60;;;;;;5094493;28;20885;-71
2023/07/07 09:24:22;;;;;;;6.37;2.00;;;30.10;65.80;;;;;;5089839;28;20479;-70
2023/07/07 09:26:51;;;;;;;1.83;1.50;;;29.30;69.30;;;;;;5094539;28;20402;-67
2023/07/07 09:29:29;;;;;;;2.70;1.47;;;30.00;62.80;;;;;;5081462;28;20422;-70
2023/07/07 09:31:55;;;;;;;2.23;1.40;;;30.00;63.30;;;;;;5094779;28;20519;-69
2023/07/07 09:34:22;;;;;;;15.07;13.63;;;30.30;64.80;;;;;;5085957;28;20435;-69
2023/07/07 09:37:04;;;;;;;1.80;1.50;;;31.10;65.40;;;;;;5093924;28;20882;-68
2023/07/07 09:39:46;;;;;;;2.87;1.23;;;29.90;64.60;;;;;;5085942;28;20839;-70
2023/07/07 09:42:20;;;;;;;1.97;1.37;;;30.00;62.00;;;;;;5092928;28;20433;-69
2023/07/07 09:45:04;;;;;;;1.43;1.33;;;29.20;60.60;;;;;;5085469;28;20435;-70
2023/07/07 09:47:56;;;;;;;1.50;1.40;;;28.90;62.70;;;;;;5068550;28;20498;-69
2023/07/07 09:50:45;;;;;;;4.00;2.80;;;28.70;66.10;;;;;;5088966;28;20882;-70
2023/07/07 09:53:23;;;;;;;3.63;1.93;;;28.50;67.10;;;;;;5072716;28;20480;-69
2023/07/07 09:55:50;;;;;;;5.20;4.80;;;29.90;63.30;;;;;;5093736;28;20396;-69
2023/07/07 09:58:41;;;;;;;5.23;4.73;;;30.10;62.40;;;;;;5087812;28;20416;-68
2023/07/07 10:01:09;;;;;;;1.90;1.47;;;29.90;63.70;;;;;;5092419;28;20408;-70
2023/07/07 10:03:44;;;;;;;3.33;1.37;;;29.60;63.50;;;;;;5082549;28;20539;-70
2023/07/07 10:06:39;;;;;;;13.00;11.80;;;30.50;61.40;;;;;;5083647;28;20402;-70
2023/07/07 10:09:11;;;;;;;4.30;3.90;;;31.30;60.40;;;;;;5089545;28;20449;-72
2023/07/07 10:11:39;;;;;;;4.43;4.13;;;31.10;59.00;;;;;;5087150;28;20459;-70
2023/07/07 10:14:06;;;;;;;1.40;1.20;;;30.70;60.80;;;;;;5092900;28;20522;-70
2023/07/07 10:16:32;;;;;;;3.50;3.20;;;29.60;60.00;;;;;;5088349;28;20552;-69
2023/07/07 10:19:09;;;;;;;2.00;1.23;;;29.40;63.10;;;;;;5089195;28;20404;-68
2023/07/07 10:21:36;;;;;;;1.63;1.53;;;28.30;63.20;;;;;;5062211;28;20411;-70
2023/07/07 10:24:02;;;;;;;1.73;1.63;;;27.80;63.80;;;;;;5094500;28;20548;-70
2023/07/07 10:26:27;;;;;;;3.30;1.97;;;27.50;64.10;;;;;;5091577;28;20416;-71
2023/07/07 10:28:57;;;;;;;7.00;6.40;;;28.30;61.90;;;;;;5098378;28;20212;-70
2023/07/07 10:31:24;;;;;;;2.20;1.70;;;28.50;61.30;;;;;;5080404;28;20627;-71
2023/07/07 10:33:55;;;;;;;16.53;14.83;;;27.80;62.00;;;;;;5092421;28;20437;-69
2023/07/07 10:36:31;;;;;;;5.50;5.00;;;27.70;65.90;;;;;;5066490;28;20412;-69
2023/07/07 10:38:57;;;;;;;6.50;1.90;;;28.10;67.70;;;;;;5103289;28;20501;-69
2023/07/07 10:41:27;;;;;;;3.90;3.40;;;28.20;60.80;;;;;;5087694;28;20405;-69
2023/07/07 10:43:54;;;;;;;1.70;1.60;;;28.00;63.60;;;;;;5093247;28;20498;-69
2023/07/07 10:46:19;;;;;;;2.67;2.47;;;27.70;61.70;;;;;;5101418;28;20497;-70
2023/07/07 10:48:46;;;;;;;3.17;2.90;;;27.50;64.50;;;;;;5101080;28;20822;-70
2023/07/07 10:51:28;;;;;;;3.90;3.50;;;27.70;65.80;;;;;;5092666;28;20228;-70
2023/07/07 10:54:08;;;;;;;6.47;5.80;;;27.70;64.20;;;;;;5085516;28;20489;-70
2023/07/07 10:56:43;;;;;;;2.23;2.00;;;27.20;64.20;;;;;;5080870;28;20414;-70
2023/07/07 10:59:43;;;;;;;13.50;11.60;;;27.30;61.10;;;;;;5091959;28;20401;-70
2023/07/07 11:02:32;;;;;;;2.77;2.47;;;27.40;65.70;;;;;;5084012;28;20403;-69
2023/07/07 11:05:16;;;;;;;5.00;3.73;;;27.10;63.80;;;;;;5087069;28;20989;-70
2023/07/07 11:07:58;;;;;;;21.10;14.63;;;27.30;65.00;;;;;;5086330;28;20396;-70
2023/07/07 11:10:38;;;;;;;2.30;2.10;;;27.40;67.00;;;;;;5078172;28;20456;-70
2023/07/07 11:13:21;;;;;;;11.83;9.13;;;27.60;64.40;;;;;;5091440;28;20401;-70
2023/07/07 11:16:13;;;;;;;1.77;1.60;;;27.20;67.10;;;;;;5088230;28;20391;-70
2023/07/07 11:19:18;;;;;;;10.20;9.13;;;27.30;65.40;;;;;;5076111;28;20464;-70
2023/07/07 11:22:18;;;;;;;27.50;23.97;;;27.10;64.50;;;;;;5078936;28;20780;-70
2023/07/07 11:24:49;;;;;;;19.03;16.20;;;27.30;64.90;;;;;;5089918;28;20450;-70
2023/07/07 11:27:34;;;;;;;3.13;1.97;;;27.50;66.00;;;;;;5089610;28;20394;-69
2023/07/07 11:30:37;;;;;;;2.83;1.83;;;27.60;61.80;;;;;;5087173;28;20417;-69
2023/07/07 11:33:15;;;;;;;1.70;1.50;;;27.50;62.60;;;;;;5083104;28;20970;-70
2023/07/07 11:36:07;;;;;;;1.70;1.60;;;27.30;60.50;;;;;;5088991;28;20755;-69
2023/07/07 11:38:45;;;;;;;5.20;4.50;;;27.20;61.20;;;;;;5085544;28;20400;-70
2023/07/07 11:41:11;;;;;;;10.00;8.43;;;27.30;63.60;;;;;;5086978;28;20407;-69
2023/07/07 11:44:08;;;;;;;2.50;1.80;;;27.40;65.10;;;;;;5091720;28;20431;-68
2023/07/07 11:46:46;;;;;;;2.03;1.90;;;27.40;64.70;;;;;;5084836;28;20222;-69
2023/07/07 11:49:39;;;;;;;2.30;1.63;;;27.20;66.10;;;;;;5082057;28;20404;-70
2023/07/07 11:52:32;;;;;;;2.47;1.60;;;27.30;65.10;;;;;;5086928;28;20458;-69
2023/07/07 11:55:24;;;;;;;1.50;1.40;;;27.60;66.80;;;;;;5091263;28;20461;-71
2023/07/07 11:58:04;;;;;;;11.27;10.07;;;27.00;62.70;;;;;;5088227;28;20407;-69
2023/07/07 12:00:44;;;;;;;7.53;6.87;;;27.30;66.30;;;;;;5092169;28;20903;-70
2023/07/07 12:03:35;;;;;;;4.17;3.00;;;27.40;65.10;;;;;;5085699;28;20912;-70
2023/07/07 12:06:12;;;;;;;1.83;1.57;;;27.40;65.20;;;;;;5098535;28;20503;-68
2023/07/07 12:08:52;;;;;;;2.80;1.83;;;27.50;63.80;;;;;;5092469;28;20532;-69
2023/07/07 12:11:21;;;;;;;1.93;1.83;;;27.60;62.60;;;;;;5098338;28;20446;-69
2023/07/07 12:14:10;;;;;;;2.33;1.70;;;27.70;62.60;;;;;;5089746;28;20506;-69
2023/07/07 12:16:40;;;;;;;2.90;2.00;;;27.60;62.10;;;;;;5087140;28;20401;-70
2023/07/07 12:19:33;;;;;;;2.30;2.00;;;27.60;65.60;;;;;;5082807;28;20412;-68
2023/07/07 12:22:02;;;;;;;4.83;3.23;;;27.70;67.10;;;;;;5082797;28;20410;-69
2023/07/07 12:24:45;;;;;;;2.67;2.30;;;27.70;65.30;;;;;;5072935;28;20438;-70
2023/07/07 12:27:21;;;;;;;7.47;6.77;;;27.70;64.20;;;;;;5089209;28;20414;-69
2023/07/07 12:29:49;;;;;;;2.00;1.70;;;27.30;61.30;;;;;;5084621;28;20497;-70
2023/07/07 12:32:14;;;;;;;1.97;1.80;;;27.50;62.60;;;;;;5088740;28;20453;-68
2023/07/07 12:35:12;;;;;;;5.17;1.90;;;27.10;62.10;;;;;;5086152;28;20520;-68
2023/07/07 12:37:38;;;;;;;2.00;1.60;;;27.10;61.20;;;;;;5085331;28;20200;-69
2023/07/07 12:40:16;;;;;;;1.97;1.77;;;27.10;60.70;;;;;;5087814;28;20522;-70
2023/07/07 12:42:43;;;;;;;2.57;1.90;;;27.50;60.60;;;;;;5083621;28;20626;-69
2023/07/07 12:45:18;;;;;;;3.83;2.27;;;27.60;60.40;;;;;;5086794;28;20425;-68
2023/07/07 12:47:48;;;;;;;1.93;1.63;;;27.70;60.50;;;;;;5071345;28;20435;-69
2023/07/07 12:50:48;;;;;;;2.40;1.73;;;27.50;61.00;;;;;;5085782;28;21014;-71
2023/07/07 12:53:34;;;;;;;5.80;5.20;;;27.60;60.80;;;;;;5086015;28;20466;-69
2023/07/07 12:56:06;;;;;;;2.50;1.50;;;27.90;62.40;;;;;;5087729;28;20460;-69
2023/07/07 12:58:47;;;;;;;1.90;1.67;;;27.90;64.00;;;;;;5087488;28;20409;-69
2023/07/07 13:01:30;;;;;;;2.10;1.90;;;27.50;62.90;;;;;;5082880;28;20412;-69
2023/07/07 13:04:07;;;;;;;1.77;1.67;;;27.60;62.30;;;;;;5085731;28;20536;-69
2023/07/07 13:06:56;;;;;;;2.50;2.30;;;27.80;62.20;;;;;;5079957;28;20975;-68